Pagrindinis puslapis
METAR-TAF:

METAR-TAF

Oro uostai :

McAllen, Teksasas, Jungtinės Amerikos Valstijos

platuma: 26-10-47N, ilguma: 098-14-40W, Aukštis: 32 m

Dabartinis oras

Ataskaita buvo paskelbta 54 minutes, ne 04:53 UTC
Vėjas 5 kt iš Rytų
Temperatūra 24°C
Drėgmė 89%
Slėgis 1014 hPa
Matomumas: 16.1 km
Giedras dangus

METAR: KMFE 270453Z 10005KT 10SM CLR 24/22 A2993 RMK AO2 SLP134 T02440222

Laikas: 00:47 (05:47 UTC)

Prognozė

Ataskaita buvo paskelbta 19 minutes, ne 05:28 UTC
Prognozė galioja nuo 27 metu 06 UTC su 28 metu 06 UTC
Vėjas 3 kt nuo kintamojo kryptimis
Matomumas: 10 km
Giedras dangus
Nuo 27 metu 1400 UTC
Vėjas 8 kt iš Pietryčių
Matomumas: 10 km
Giedras dangus
Nuo 27 metu 2100 UTC
Vėjas 12 kt iš Pietryčių
Matomumas: 10 km
Mažai debesys ne aukštis 25000 ft
Nuo 28 metu 0200 UTC
Vėjas 9 kt iš Pietryčių
Matomumas: 10 km
Mažai debesys ne aukštis 25000 ft

TAF: KMFE 270528Z 2706/2806 VRB03KT P6SM SKC FM271400 14008KT P6SM SKC FM272100 13012KT P6SM FEW250 FM280200 14009KT P6SM FEW250

Orai ataskaitas ir orų prognozės (METAR, TAF).

turimą stotys yra geltonos ir raudonos taškus žemėlapyje.

Perkelti pele per norėdami pamatyti stoties vardą.

Tada spustelėkite, norėdami matyti oro stebėjimo ir prognozės.

Norėdami pakeisti žemėlapį: spustelėkite ant žalios mygtukų su juodo kryžiaus žemyn,; žalią mygtuką su brūkšneliu, jei norite nutolinti; arba žalių rodyklių gretimoms žemėlapius.


METAR-TAF: